sensor_id;sensor_type;location;lat;lon;timestamp;pressure;altitude;pressure_sealevel;temperature;humidity
72285;BME280;60220;53.552;10.092;2023-03-02T00:00:39;102589.06;;;3.00;81.87
72285;BME280;60220;53.552;10.092;2023-03-02T00:03:08;102583.63;;;3.14;81.78
72285;BME280;60220;53.552;10.092;2023-03-02T00:05:36;102587.59;;;2.70;82.32
72285;BME280;60220;53.552;10.092;2023-03-02T00:08:06;102589.06;;;3.00;82.40
72285;BME280;60220;53.552;10.092;2023-03-02T00:10:35;102597.38;;;2.93;81.39
72285;BME280;60220;53.552;10.092;2023-03-02T00:13:04;102588.50;;;2.88;81.67
72285;BME280;60220;53.552;10.092;2023-03-02T00:15:31;102587.28;;;2.99;80.67
72285;BME280;60220;53.552;10.092;2023-03-02T00:18:00;102590.03;;;2.67;80.61
72285;BME280;60220;53.552;10.092;2023-03-02T00:20:26;102589.94;;;1.80;83.41
72285;BME280;60220;53.552;10.092;2023-03-02T00:22:53;102592.53;;;1.96;83.45
72285;BME280;60220;53.552;10.092;2023-03-02T00:25:20;102587.06;;;1.74;84.02
72285;BME280;60220;53.552;10.092;2023-03-02T00:27:47;102583.81;;;1.94;84.97
72285;BME280;60220;53.552;10.092;2023-03-02T00:30:15;102580.91;;;2.22;84.62
72285;BME280;60220;53.552;10.092;2023-03-02T00:32:42;102574.88;;;2.57;83.32
72285;BME280;60220;53.552;10.092;2023-03-02T00:35:10;102575.75;;;2.75;82.57
72285;BME280;60220;53.552;10.092;2023-03-02T00:37:39;102576.28;;;2.68;81.04
72285;BME280;60220;53.552;10.092;2023-03-02T00:40:07;102576.84;;;1.45;83.66
72285;BME280;60220;53.552;10.092;2023-03-02T00:42:34;102570.03;;;1.95;84.20
72285;BME280;60220;53.552;10.092;2023-03-02T00:45:01;102569.00;;;2.09;83.49
72285;BME280;60220;53.552;10.092;2023-03-02T00:47:32;102562.00;;;2.25;82.90
72285;BME280;60220;53.552;10.092;2023-03-02T00:49:59;102568.13;;;2.43;82.59
72285;BME280;60220;53.552;10.092;2023-03-02T00:52:28;102564.50;;;2.57;82.22
72285;BME280;60220;53.552;10.092;2023-03-02T00:54:55;102561.88;;;2.39;82.60
72285;BME280;60220;53.552;10.092;2023-03-02T00:57:22;102556.28;;;2.48;82.42
72285;BME280;60220;53.552;10.092;2023-03-02T00:59:49;102552.03;;;2.50;81.59
72285;BME280;60220;53.552;10.092;2023-03-02T01:02:15;102555.25;;;2.10;82.45
72285;BME280;60220;53.552;10.092;2023-03-02T01:04:44;102553.25;;;1.71;83.53
72285;BME280;60220;53.552;10.092;2023-03-02T01:07:14;102551.09;;;1.96;84.01
72285;BME280;60220;53.552;10.092;2023-03-02T01:09:44;102540.72;;;1.96;84.28
72285;BME280;60220;53.552;10.092;2023-03-02T01:12:13;102547.50;;;1.77;84.02
72285;BME280;60220;53.552;10.092;2023-03-02T01:14:42;102545.38;;;2.37;82.38
72285;BME280;60220;53.552;10.092;2023-03-02T01:17:09;102544.06;;;2.28;81.62
72285;BME280;60220;53.552;10.092;2023-03-02T01:19:36;102536.31;;;2.11;81.87
72285;BME280;60220;53.552;10.092;2023-03-02T01:22:05;102535.78;;;1.67;82.67
72285;BME280;60220;53.552;10.092;2023-03-02T01:24:32;102531.31;;;2.68;81.98
72285;BME280;60220;53.552;10.092;2023-03-02T01:26:59;102524.88;;;2.42;80.78
72285;BME280;60220;53.552;10.092;2023-03-02T01:29:25;102524.19;;;2.46;81.02
72285;BME280;60220;53.552;10.092;2023-03-02T01:31:54;102520.16;;;1.99;80.61
72285;BME280;60220;53.552;10.092;2023-03-02T01:34:21;102521.22;;;2.03;81.42
72285;BME280;60220;53.552;10.092;2023-03-02T01:36:48;102528.34;;;0.92;83.70
72285;BME280;60220;53.552;10.092;2023-03-02T01:39:18;102526.09;;;1.14;84.47
72285;BME280;60220;53.552;10.092;2023-03-02T01:41:47;102526.84;;;0.65;85.86
72285;BME280;60220;53.552;10.092;2023-03-02T01:44:48;102518.09;;;0.63;86.50
72285;BME280;60220;53.552;10.092;2023-03-02T01:47:17;102518.56;;;1.03;87.30
72285;BME280;60220;53.552;10.092;2023-03-02T01:49:49;102514.25;;;0.87;87.16
72285;BME280;60220;53.552;10.092;2023-03-02T01:52:16;102520.19;;;1.17;86.92
72285;BME280;60220;53.552;10.092;2023-03-02T01:54:46;102525.28;;;1.15;86.27
72285;BME280;60220;53.552;10.092;2023-03-02T01:57:16;102524.13;;;1.10;86.55
72285;BME280;60220;53.552;10.092;2023-03-02T01:59:49;102524.59;;;0.87;87.29
72285;BME280;60220;53.552;10.092;2023-03-02T02:02:18;102515.38;;;0.76;87.37
72285;BME280;60220;53.552;10.092;2023-03-02T02:04:48;102515.38;;;0.76;87.60
72285;BME280;60220;53.552;10.092;2023-03-02T02:07:15;102504.44;;;1.28;86.87
72285;BME280;60220;53.552;10.092;2023-03-02T02:09:46;102506.09;;;0.96;86.22
72285;BME280;60220;53.552;10.092;2023-03-02T02:12:14;102508.13;;;1.01;86.48
72285;BME280;60220;53.552;10.092;2023-03-02T02:14:43;102502.25;;;0.57;87.68
72285;BME280;60220;53.552;10.092;2023-03-02T02:17:13;102508.25;;;1.19;86.64
72285;BME280;60220;53.552;10.092;2023-03-02T02:19:49;102510.78;;;0.86;86.54
72285;BME280;60220;53.552;10.092;2023-03-02T02:22:31;102509.25;;;0.90;86.33
72285;BME280;60220;53.552;10.092;2023-03-02T02:25:13;102510.88;;;0.88;87.49
72285;BME280;60220;53.552;10.092;2023-03-02T02:27:44;102502.41;;;1.07;86.26
72285;BME280;60220;53.552;10.092;2023-03-02T02:30:12;102501.28;;;1.34;86.12
72285;BME280;60220;53.552;10.092;2023-03-02T02:32:42;102498.63;;;0.53;87.09
72285;BME280;60220;53.552;10.092;2023-03-02T02:35:15;102494.88;;;0.79;88.31
72285;BME280;60220;53.552;10.092;2023-03-02T02:37:46;102488.25;;;0.84;88.18
72285;BME280;60220;53.552;10.092;2023-03-02T02:40:16;102491.88;;;1.86;86.37
72285;BME280;60220;53.552;10.092;2023-03-02T02:42:47;102488.03;;;1.78;84.96
72285;BME280;60220;53.552;10.092;2023-03-02T02:45:19;102481.06;;;1.77;84.48
72285;BME280;60220;53.552;10.092;2023-03-02T02:47:46;102493.03;;;0.93;85.89
72285;BME280;60220;53.552;10.092;2023-03-02T02:50:18;102494.25;;;0.99;86.92
72285;BME280;60220;53.552;10.092;2023-03-02T02:52:50;102488.09;;;1.46;86.97
72285;BME280;60220;53.552;10.092;2023-03-02T02:55:22;102488.00;;;2.12;85.73
72285;BME280;60220;53.552;10.092;2023-03-02T02:57:52;102483.22;;;1.68;84.94
72285;BME280;60220;53.552;10.092;2023-03-02T03:00:21;102479.50;;;1.47;85.22
72285;BME280;60220;53.552;10.092;2023-03-02T03:02:52;102483.22;;;1.52;85.19
72285;BME280;60220;53.552;10.092;2023-03-02T03:05:21;102480.66;;;1.36;86.02
72285;BME280;60220;53.552;10.092;2023-03-02T03:07:50;102475.78;;;1.92;84.76
72285;BME280;60220;53.552;10.092;2023-03-02T03:10:21;102478.88;;;2.02;83.86
72285;BME280;60220;53.552;10.092;2023-03-02T03:12:51;102477.72;;;2.31;82.93
72285;BME280;60220;53.552;10.092;2023-03-02T03:15:18;102473.41;;;1.96;82.62
72285;BME280;60220;53.552;10.092;2023-03-02T03:17:46;102481.13;;;2.12;82.59
72285;BME280;60220;53.552;10.092;2023-03-02T03:20:14;102479.75;;;1.85;82.83
72285;BME280;60220;53.552;10.092;2023-03-02T03:22:44;102477.47;;;1.57;84.06
72285;BME280;60220;53.552;10.092;2023-03-02T03:25:11;102483.22;;;1.68;84.43
72285;BME280;60220;53.552;10.092;2023-03-02T03:27:41;102495.25;;;2.01;83.95
72285;BME280;60220;53.552;10.092;2023-03-02T03:30:12;102489.50;;;1.73;83.88
72285;BME280;60220;53.552;10.092;2023-03-02T03:32:40;102485.59;;;1.47;84.91
72285;BME280;60220;53.552;10.092;2023-03-02T03:35:07;102489.22;;;1.35;84.80
72285;BME280;60220;53.552;10.092;2023-03-02T03:37:39;102495.22;;;1.17;85.55
72285;BME280;60220;53.552;10.092;2023-03-02T03:40:07;102494.47;;;1.36;85.58
72285;BME280;60220;53.552;10.092;2023-03-02T03:42:35;102488.06;;;1.96;85.14
72285;BME280;60220;53.552;10.092;2023-03-02T03:45:03;102489.84;;;1.63;83.88
72285;BME280;60220;53.552;10.092;2023-03-02T03:47:31;102482.19;;;1.16;84.79
72285;BME280;60220;53.552;10.092;2023-03-02T03:50:00;102486.97;;;0.92;85.31
72285;BME280;60220;53.552;10.092;2023-03-02T03:52:27;102482.75;;;1.43;85.26
72285;BME280;60220;53.552;10.092;2023-03-02T03:54:56;102484.00;;;1.67;84.93
72285;BME280;60220;53.552;10.092;2023-03-02T03:57:23;102478.31;;;1.40;84.11
72285;BME280;60220;53.552;10.092;2023-03-02T03:59:50;102471.84;;;1.48;83.89
72285;BME280;60220;53.552;10.092;2023-03-02T04:02:17;102475.00;;;1.77;83.89
72285;BME280;60220;53.552;10.092;2023-03-02T04:04:45;102485.50;;;1.80;83.09
72285;BME280;60220;53.552;10.092;2023-03-02T04:07:12;102485.69;;;2.00;83.18
72285;BME280;60220;53.552;10.092;2023-03-02T04:09:39;102484.16;;;1.70;83.22
72285;BME280;60220;53.552;10.092;2023-03-02T04:12:07;102489.56;;;0.92;84.05
72285;BME280;60220;53.552;10.092;2023-03-02T04:14:34;102479.31;;;0.94;85.23
72285;BME280;60220;53.552;10.092;2023-03-02T04:17:01;102483.22;;;1.52;84.96
72285;BME280;60220;53.552;10.092;2023-03-02T04:19:30;102488.25;;;1.16;84.85
72285;BME280;60220;53.552;10.092;2023-03-02T04:21:58;102491.41;;;1.93;84.33
72285;BME280;60220;53.552;10.092;2023-03-02T04:24:27;102484.34;;;1.91;83.75
72285;BME280;60220;53.552;10.092;2023-03-02T04:26:54;102484.97;;;2.21;82.96
72285;BME280;60220;53.552;10.092;2023-03-02T04:29:20;102490.59;;;2.12;83.11
72285;BME280;60220;53.552;10.092;2023-03-02T04:31:47;102486.44;;;1.98;82.60
72285;BME280;60220;53.552;10.092;2023-03-02T04:34:16;102488.22;;;2.52;81.91
72285;BME280;60220;53.552;10.092;2023-03-02T04:36:43;102491.19;;;2.06;81.42
72285;BME280;60220;53.552;10.092;2023-03-02T04:39:13;102484.81;;;2.17;82.93
72285;BME280;60220;53.552;10.092;2023-03-02T04:41:41;102486.09;;;1.24;85.10
72285;BME280;60220;53.552;10.092;2023-03-02T04:44:07;102489.03;;;1.64;85.35
72285;BME280;60220;53.552;10.092;2023-03-02T04:46:34;102495.28;;;1.35;84.52
72285;BME280;60220;53.552;10.092;2023-03-02T04:49:01;102483.38;;;1.55;84.21
72285;BME280;60220;53.552;10.092;2023-03-02T04:51:30;102488.69;;;1.08;84.21
72285;BME280;60220;53.552;10.092;2023-03-02T04:53:59;102492.38;;;1.45;84.28
72285;BME280;60220;53.552;10.092;2023-03-02T04:56:28;102490.00;;;2.35;81.94
72285;BME280;60220;53.552;10.092;2023-03-02T04:58:55;102488.03;;;1.78;82.13
72285;BME280;60220;53.552;10.092;2023-03-02T05:01:23;102499.78;;;1.55;83.96
72285;BME280;60220;53.552;10.092;2023-03-02T05:03:50;102499.06;;;1.74;84.43
72285;BME280;60220;53.552;10.092;2023-03-02T05:06:18;102513.66;;;1.07;85.31
72285;BME280;60220;53.552;10.092;2023-03-02T05:08:46;102505.25;;;1.11;86.30
72285;BME280;60220;53.552;10.092;2023-03-02T05:11:14;102501.91;;;1.30;86.42
72285;BME280;60220;53.552;10.092;2023-03-02T05:13:48;102506.53;;;1.03;85.18
72285;BME280;60220;53.552;10.092;2023-03-02T05:16:14;102502.81;;;0.98;84.93
72285;BME280;60220;53.552;10.092;2023-03-02T05:18:41;102508.25;;;1.19;85.01
72285;BME280;60220;53.552;10.092;2023-03-02T05:21:08;102516.88;;;0.41;85.52
72285;BME280;60220;53.552;10.092;2023-03-02T05:23:36;102511.28;;;0.49;85.04
72285;BME280;60220;53.552;10.092;2023-03-02T05:26:05;102516.53;;;0.35;86.19
72285;BME280;60220;53.552;10.092;2023-03-02T05:28:32;102521.66;;;0.65;86.27
72285;BME280;60220;53.552;10.092;2023-03-02T05:31:00;102513.78;;;0.78;86.64
72285;BME280;60220;53.552;10.092;2023-03-02T05:33:27;102507.66;;;0.92;85.64
72285;BME280;60220;53.552;10.092;2023-03-02T05:35:54;102508.59;;;0.78;86.13
72285;BME280;60220;53.552;10.092;2023-03-02T05:38:21;102496.63;;;0.80;86.17
72285;BME280;60220;53.552;10.092;2023-03-02T05:40:48;102499.34;;;0.98;86.07
72285;BME280;60220;53.552;10.092;2023-03-02T05:43:17;102503.78;;;0.84;85.41
72285;BME280;60220;53.552;10.092;2023-03-02T05:45:46;102499.75;;;1.38;84.55
72285;BME280;60220;53.552;10.092;2023-03-02T05:48:16;102500.06;;;1.44;83.53
72285;BME280;60220;53.552;10.092;2023-03-02T05:50:43;102498.34;;;0.96;84.24
72285;BME280;60220;53.552;10.092;2023-03-02T05:53:14;102501.19;;;1.00;84.40
72285;BME280;60220;53.552;10.092;2023-03-02T05:55:41;102494.13;;;0.81;85.94
72285;BME280;60220;53.552;10.092;2023-03-02T05:58:11;102496.88;;;0.68;85.59
72285;BME280;60220;53.552;10.092;2023-03-02T06:00:38;102495.72;;;0.94;85.64
72285;BME280;60220;53.552;10.092;2023-03-02T06:03:08;102493.69;;;1.37;84.49
72285;BME280;60220;53.552;10.092;2023-03-02T06:05:43;102492.31;;;1.27;83.80
72285;BME280;60220;53.552;10.092;2023-03-02T06:08:17;102500.41;;;1.34;84.62
72285;BME280;60220;53.552;10.092;2023-03-02T06:10:49;102499.41;;;1.32;85.07
72285;BME280;60220;53.552;10.092;2023-03-02T06:13:16;102501.19;;;1.16;84.63
72285;BME280;60220;53.552;10.092;2023-03-02T06:15:43;102501.25;;;1.50;83.67
72285;BME280;60220;53.552;10.092;2023-03-02T06:18:09;102503.44;;;0.78;83.92
72285;BME280;60220;53.552;10.092;2023-03-02T06:20:37;102516.22;;;1.56;84.20
72285;BME280;60220;53.552;10.092;2023-03-02T06:23:06;102517.44;;;1.30;83.92
72285;BME280;60220;53.552;10.092;2023-03-02T06:25:33;102522.19;;;1.06;84.05
72285;BME280;60220;53.552;10.092;2023-03-02T06:28:01;102522.06;;;1.03;83.89
72285;BME280;60220;53.552;10.092;2023-03-02T06:30:27;102515.06;;;0.55;85.77
72285;BME280;60220;53.552;10.092;2023-03-02T06:32:54;102521.97;;;1.50;84.79
72285;BME280;60220;53.552;10.092;2023-03-02T06:35:23;102520.78;;;2.11;83.30
72285;BME280;60220;53.552;10.092;2023-03-02T06:37:50;102514.41;;;2.05;82.33
72285;BME280;60220;53.552;10.092;2023-03-02T06:40:18;102513.69;;;0.76;83.35
72285;BME280;60220;53.552;10.092;2023-03-02T06:42:46;102519.47;;;1.52;83.63
72285;BME280;60220;53.552;10.092;2023-03-02T06:45:13;102507.59;;;1.07;83.25
72285;BME280;60220;53.552;10.092;2023-03-02T06:47:40;102505.78;;;1.06;84.07
72285;BME280;60220;53.552;10.092;2023-03-02T06:50:08;102500.09;;;0.64;84.77
72285;BME280;60220;53.552;10.092;2023-03-02T06:52:37;102502.44;;;0.45;86.05
72285;BME280;60220;53.552;10.092;2023-03-02T06:55:05;102505.84;;;0.44;87.09
72285;BME280;60220;53.552;10.092;2023-03-02T06:57:33;102495.59;;;1.25;85.79
72285;BME280;60220;53.552;10.092;2023-03-02T07:00:04;102506.72;;;1.39;84.36
72285;BME280;60220;53.552;10.092;2023-03-02T07:02:35;102501.81;;;1.45;84.90
72285;BME280;60220;53.552;10.092;2023-03-02T07:05:01;102501.09;;;1.47;84.38
72285;BME280;60220;53.552;10.092;2023-03-02T07:07:28;102495.19;;;0.38;86.13
72285;BME280;60220;53.552;10.092;2023-03-02T07:09:57;102508.09;;;0.69;86.06
72285;BME280;60220;53.552;10.092;2023-03-02T07:12:24;102507.34;;;1.02;86.20
72285;BME280;60220;53.552;10.092;2023-03-02T07:14:52;102503.53;;;0.49;86.10
72285;BME280;60220;53.552;10.092;2023-03-02T07:17:18;102511.38;;;0.97;86.55
72285;BME280;60220;53.552;10.092;2023-03-02T07:19:47;102499.75;;;1.54;85.65
72285;BME280;60220;53.552;10.092;2023-03-02T07:22:16;102507.31;;;1.51;84.45
72285;BME280;60220;53.552;10.092;2023-03-02T07:24:43;102501.78;;;1.77;83.62
72285;BME280;60220;53.552;10.092;2023-03-02T07:27:10;102497.75;;;1.66;81.64
72285;BME280;60220;53.552;10.092;2023-03-02T07:29:36;102495.28;;;1.85;82.99
72285;BME280;60220;53.552;10.092;2023-03-02T07:32:05;102487.50;;;1.51;82.43
72285;BME280;60220;53.552;10.092;2023-03-02T07:34:31;102489.16;;;1.01;83.85
72285;BME280;60220;53.552;10.092;2023-03-02T07:36:58;102486.88;;;1.89;83.10
72285;BME280;60220;53.552;10.092;2023-03-02T07:39:25;102494.56;;;2.05;82.52
72285;BME280;60220;53.552;10.092;2023-03-02T07:41:51;102487.91;;;1.93;82.04
72285;BME280;60220;53.552;10.092;2023-03-02T07:44:18;102492.47;;;1.30;82.91
72285;BME280;60220;53.552;10.092;2023-03-02T07:46:44;102492.06;;;2.42;81.78
72285;BME280;60220;53.552;10.092;2023-03-02T07:49:12;102489.97;;;1.32;83.26
72285;BME280;60220;53.552;10.092;2023-03-02T07:51:39;102488.22;;;1.65;84.65
72285;BME280;60220;53.552;10.092;2023-03-02T07:54:07;102487.59;;;1.69;84.40
72285;BME280;60220;53.552;10.092;2023-03-02T07:56:33;102482.50;;;1.54;84.22
72285;BME280;60220;53.552;10.092;2023-03-02T07:59:00;102483.19;;;2.02;83.60
72285;BME280;60220;53.552;10.092;2023-03-02T08:01:27;102480.22;;;2.30;82.27
72285;BME280;60220;53.552;10.092;2023-03-02T08:03:54;102481.09;;;1.95;82.73
72285;BME280;60220;53.552;10.092;2023-03-02T08:06:24;102484.34;;;1.91;82.19
72285;BME280;60220;53.552;10.092;2023-03-02T08:08:51;102480.88;;;1.90;82.81
72285;BME280;60220;53.552;10.092;2023-03-02T08:11:17;102483.09;;;1.16;83.81
72285;BME280;60220;53.552;10.092;2023-03-02T08:13:44;102475.47;;;1.86;83.94
72285;BME280;60220;53.552;10.092;2023-03-02T08:16:13;102484.22;;;1.38;84.46
72285;BME280;60220;53.552;10.092;2023-03-02T08:18:41;102478.63;;;0.81;85.45
72285;BME280;60220;53.552;10.092;2023-03-02T08:21:13;102484.94;;;1.35;85.44
72285;BME280;60220;53.552;10.092;2023-03-02T08:23:41;102474.34;;;1.47;85.39
72285;BME280;60220;53.552;10.092;2023-03-02T08:26:08;102475.63;;;2.06;84.04
72285;BME280;60220;53.552;10.092;2023-03-02T08:28:37;102473.63;;;1.49;84.67
72285;BME280;60220;53.552;10.092;2023-03-02T08:31:07;102472.22;;;1.56;84.94
72285;BME280;60220;53.552;10.092;2023-03-02T08:33:35;102474.47;;;1.50;85.95
72285;BME280;60220;53.552;10.092;2023-03-02T08:36:04;102480.91;;;2.43;84.76
72285;BME280;60220;53.552;10.092;2023-03-02T08:38:32;102481.97;;;2.66;85.30
72285;BME280;60220;53.552;10.092;2023-03-02T08:41:03;102480.78;;;2.96;84.46
72285;BME280;60220;53.552;10.092;2023-03-02T08:43:31;102475.97;;;2.67;82.84
72285;BME280;60220;53.552;10.092;2023-03-02T08:45:58;102478.56;;;2.49;81.33
72285;BME280;60220;53.552;10.092;2023-03-02T08:48:28;102491.63;;;2.51;81.30
72285;BME280;60220;53.552;10.092;2023-03-02T08:50:56;102483.38;;;2.96;81.42
72285;BME280;60220;53.552;10.092;2023-03-02T08:53:23;102478.56;;;3.23;79.65
72285;BME280;60220;53.552;10.092;2023-03-02T08:58:32;102482.94;;;2.68;79.84
72285;BME280;60220;53.552;10.092;2023-03-02T09:00:59;102480.06;;;2.44;80.26
72285;BME280;60220;53.552;10.092;2023-03-02T09:03:27;102475.81;;;2.64;79.54
72285;BME280;60220;53.552;10.092;2023-03-02T09:05:56;102468.16;;;2.48;80.40
72285;BME280;60220;53.552;10.092;2023-03-02T09:08:23;102465.09;;;2.56;80.66
72285;BME280;60220;53.552;10.092;2023-03-02T09:10:49;102462.06;;;2.84;79.58
72285;BME280;60220;53.552;10.092;2023-03-02T09:13:17;102464.06;;;2.53;80.23
72285;BME280;60220;53.552;10.092;2023-03-02T09:15:45;102458.00;;;2.52;79.43
72285;BME280;60220;53.552;10.092;2023-03-02T09:18:14;102455.06;;;2.09;81.47
72285;BME280;60220;53.552;10.092;2023-03-02T09:20:41;102446.13;;;3.14;80.29
72285;BME280;60220;53.552;10.092;2023-03-02T09:23:08;102451.28;;;2.94;78.31
72285;BME280;60220;53.552;10.092;2023-03-02T09:25:39;102456.44;;;1.85;80.46
72285;BME280;60220;53.552;10.092;2023-03-02T09:28:06;102448.94;;;2.62;79.87
72285;BME280;60220;53.552;10.092;2023-03-02T09:30:33;102453.03;;;1.86;81.97
72285;BME280;60220;53.552;10.092;2023-03-02T09:33:01;102456.53;;;2.04;82.30
72285;BME280;60220;53.552;10.092;2023-03-02T09:35:28;102454.97;;;2.26;81.14
72285;BME280;60220;53.552;10.092;2023-03-02T09:40:55;102459.44;;;1.93;83.48
72285;BME280;60220;53.552;10.092;2023-03-02T09:46:22;102459.22;;;2.24;82.99
72285;BME280;60220;53.552;10.092;2023-03-02T09:49:02;102463.94;;;2.32;83.15
72285;BME280;60220;53.552;10.092;2023-03-02T09:51:35;102459.22;;;2.97;81.46
72285;BME280;60220;53.552;10.092;2023-03-02T09:54:09;102461.69;;;2.40;81.08
72285;BME280;60220;53.552;10.092;2023-03-02T09:56:44;102458.31;;;2.05;81.83
72285;BME280;60220;53.552;10.092;2023-03-02T09:59:20;102448.75;;;2.77;80.46
72285;BME280;60220;53.552;10.092;2023-03-02T10:01:54;102448.97;;;3.20;78.45
72285;BME280;60220;53.552;10.092;2023-03-02T10:04:29;102456.88;;;2.84;79.10
72285;BME280;60220;53.552;10.092;2023-03-02T10:07:08;102465.34;;;2.80;79.24
72285;BME280;60220;53.552;10.092;2023-03-02T10:09:36;102464.94;;;3.10;78.58
72285;BME280;60220;53.552;10.092;2023-03-02T10:12:41;102465.84;;;3.69;76.83
72285;BME280;60220;53.552;10.092;2023-03-02T10:15:14;102466.69;;;2.17;79.54
72285;BME280;60220;53.552;10.092;2023-03-02T10:17:54;102469.25;;;2.53;80.04
72285;BME280;60220;53.552;10.092;2023-03-02T10:20:28;102470.44;;;2.06;80.63
72285;BME280;60220;53.552;10.092;2023-03-02T10:22:59;102462.31;;;2.16;81.97
72285;BME280;60220;53.552;10.092;2023-03-02T10:25:40;102466.16;;;2.25;82.22
72285;BME280;60220;53.552;10.092;2023-03-02T10:28:16;102455.66;;;3.34;79.34
72285;BME280;60220;53.552;10.092;2023-03-02T10:30:50;102462.69;;;2.06;81.56
72285;BME280;60220;53.552;10.092;2023-03-02T10:33:20;102459.75;;;2.71;81.05
72285;BME280;60220;53.552;10.092;2023-03-02T10:35:50;102464.22;;;2.56;79.70
72285;BME280;60220;53.552;10.092;2023-03-02T10:38:19;102464.25;;;2.94;79.70
72285;BME280;60220;53.552;10.092;2023-03-02T10:40:48;102468.38;;;1.99;80.29
72285;BME280;60220;53.552;10.092;2023-03-02T10:43:19;102469.88;;;2.12;81.94
72285;BME280;60220;53.552;10.092;2023-03-02T10:46:00;102459.91;;;2.56;81.92
72285;BME280;60220;53.552;10.092;2023-03-02T10:48:27;102454.09;;;2.99;80.89
72285;BME280;60220;53.552;10.092;2023-03-02T10:50:56;102464.31;;;3.54;78.74
72285;BME280;60220;53.552;10.092;2023-03-02T10:53:25;102456.97;;;3.64;76.86
72285;BME280;60220;53.552;10.092;2023-03-02T10:55:53;102447.88;;;3.15;77.34
72285;BME280;60220;53.552;10.092;2023-03-02T10:58:27;102454.16;;;3.60;76.37
72285;BME280;60220;53.552;10.092;2023-03-02T11:00:59;102450.16;;;4.08;75.88
72285;BME280;60220;53.552;10.092;2023-03-02T11:03:29;102451.97;;;4.10;74.46
72285;BME280;60220;53.552;10.092;2023-03-02T11:06:14;102445.94;;;3.70;76.20
72285;BME280;60220;53.552;10.092;2023-03-02T11:08:42;102443.53;;;3.95;75.62
72285;BME280;60220;53.552;10.092;2023-03-02T11:11:21;102440.88;;;4.14;76.10
72285;BME280;60220;53.552;10.092;2023-03-02T11:13:48;102442.28;;;3.25;77.27
72285;BME280;60220;53.552;10.092;2023-03-02T11:16:24;102450.44;;;3.53;78.34
72285;BME280;60220;53.552;10.092;2023-03-02T11:18:56;102436.22;;;2.86;79.34
72285;BME280;60220;53.552;10.092;2023-03-02T11:21:30;102444.59;;;3.78;77.82
72285;BME280;60220;53.552;10.092;2023-03-02T11:24:05;102433.59;;;3.85;77.13
72285;BME280;60220;53.552;10.092;2023-03-02T11:26:37;102426.56;;;4.03;77.07
72285;BME280;60220;53.552;10.092;2023-03-02T11:29:13;102429.28;;;4.06;76.77
72285;BME280;60220;53.552;10.092;2023-03-02T11:31:47;102428.06;;;3.36;76.96
72285;BME280;60220;53.552;10.092;2023-03-02T11:34:27;102428.63;;;2.71;78.61
72285;BME280;60220;53.552;10.092;2023-03-02T11:37:12;102428.06;;;3.36;79.51
72285;BME280;60220;53.552;10.092;2023-03-02T11:39:52;102433.88;;;3.30;79.22
72285;BME280;60220;53.552;10.092;2023-03-02T11:42:26;102417.81;;;4.01;76.43
72285;BME280;60220;53.552;10.092;2023-03-02T11:44:53;102413.34;;;4.19;75.66
72285;BME280;60220;53.552;10.092;2023-03-02T11:47:21;102407.69;;;4.52;74.95
72285;BME280;60220;53.552;10.092;2023-03-02T11:49:53;102412.47;;;4.19;74.89
72285;BME280;60220;53.552;10.092;2023-03-02T11:52:24;102412.84;;;4.28;74.31
72285;BME280;60220;53.552;10.092;2023-03-02T11:54:54;102408.00;;;4.37;74.92
72285;BME280;60220;53.552;10.092;2023-03-02T11:57:28;102407.50;;;4.03;74.57
72285;BME280;60220;53.552;10.092;2023-03-02T11:59:56;102410.72;;;4.18;73.78
72285;BME280;60220;53.552;10.092;2023-03-02T12:02:26;102418.19;;;4.10;74.84
72285;BME280;60220;53.552;10.092;2023-03-02T12:05:00;102412.69;;;4.25;74.27
72285;BME280;60220;53.552;10.092;2023-03-02T12:07:31;102409.50;;;4.54;74.25
72285;BME280;60220;53.552;10.092;2023-03-02T12:10:01;102408.56;;;4.08;74.03
72285;BME280;60220;53.552;10.092;2023-03-02T12:12:38;102405.97;;;4.30;75.47
72285;BME280;60220;53.552;10.092;2023-03-02T12:15:25;102399.41;;;4.40;73.87
72285;BME280;60220;53.552;10.092;2023-03-02T12:17:52;102397.91;;;4.68;73.72
72285;BME280;60220;53.552;10.092;2023-03-02T12:20:25;102396.16;;;4.45;73.58
72285;BME280;60220;53.552;10.092;2023-03-02T12:23:05;102395.78;;;4.58;73.12
72285;BME280;60220;53.552;10.092;2023-03-02T12:25:39;102399.72;;;4.47;73.27
72285;BME280;60220;53.552;10.092;2023-03-02T12:28:26;102392.81;;;3.01;76.69
72285;BME280;60220;53.552;10.092;2023-03-02T12:31:05;102391.44;;;2.90;79.15
72285;BME280;60220;53.552;10.092;2023-03-02T12:33:39;102384.34;;;2.86;80.18
72285;BME280;60220;53.552;10.092;2023-03-02T12:36:11;102385.53;;;3.53;79.86
72285;BME280;60220;53.552;10.092;2023-03-02T12:38:51;102374.75;;;2.83;79.75
72285;BME280;60220;53.552;10.092;2023-03-02T12:41:36;102386.19;;;3.68;79.35
72285;BME280;60220;53.552;10.092;2023-03-02T12:44:19;102373.22;;;2.88;80.25
72285;BME280;60220;53.552;10.092;2023-03-02T12:46:50;102374.25;;;2.92;81.06
72285;BME280;60220;53.552;10.092;2023-03-02T12:49:39;102372.34;;;3.28;81.17
72285;BME280;60220;53.552;10.092;2023-03-02T12:52:21;102375.72;;;4.10;78.61
72285;BME280;60220;53.552;10.092;2023-03-02T12:55:04;102357.06;;;4.42;76.57
72285;BME280;60220;53.552;10.092;2023-03-02T12:57:32;102362.19;;;4.41;76.38
72285;BME280;60220;53.552;10.092;2023-03-02T13:00:00;102358.66;;;5.10;75.23
72285;BME280;60220;53.552;10.092;2023-03-02T13:02:28;102347.50;;;4.89;73.72
72285;BME280;60220;53.552;10.092;2023-03-02T13:04:56;102351.47;;;5.28;73.82
72285;BME280;60220;53.552;10.092;2023-03-02T13:07:26;102349.75;;;5.54;72.77
72285;BME280;60220;53.552;10.092;2023-03-02T13:09:55;102338.06;;;4.45;73.40
72285;BME280;60220;53.552;10.092;2023-03-02T13:12:26;102343.34;;;4.94;72.95